createdAt,value
2023-01-03T00:02:47.543Z,1.25
2023-01-03T00:05:50.470Z,1.70
2023-01-03T00:08:54.865Z,1.10
2023-01-03T00:12:15.713Z,0.93
2023-01-03T00:15:18.360Z,1.25
2023-01-03T00:18:20.655Z,1.08
2023-01-03T00:21:23.003Z,1.15
2023-01-03T00:24:25.538Z,2.58
2023-01-03T00:27:28.353Z,0.90
2023-01-03T00:30:31.886Z,1.42
2023-01-03T00:33:35.728Z,1.63
2023-01-03T00:36:38.772Z,1.08
2023-01-03T00:39:41.299Z,1.23
2023-01-03T00:43:02.272Z,1.38
2023-01-03T00:46:06.288Z,1.10
2023-01-03T00:49:09.505Z,1.88
2023-01-03T00:52:11.845Z,1.27
2023-01-03T00:55:14.199Z,1.38
2023-01-03T00:58:17.019Z,1.25
2023-01-03T01:01:23.614Z,1.60
2023-01-03T01:04:31.206Z,1.48
2023-01-03T01:07:33.566Z,1.60
2023-01-03T01:10:35.886Z,1.33
2023-01-03T01:13:38.555Z,2.00
2023-01-03T01:16:41.049Z,1.70
2023-01-03T01:19:44.742Z,1.52
2023-01-03T01:22:47.155Z,1.58
2023-01-03T01:25:49.503Z,1.60
2023-01-03T01:28:52.919Z,2.03
2023-01-03T01:31:55.196Z,1.50
2023-01-03T01:34:57.581Z,1.27
2023-01-03T01:38:00.002Z,1.92
2023-01-03T01:41:02.990Z,1.60
2023-01-03T01:44:24.620Z,1.10
2023-01-03T01:47:35.683Z,1.17
2023-01-03T01:50:54.642Z,1.65
2023-01-03T01:53:59.776Z,3.35
2023-01-03T01:57:02.157Z,1.35
2023-01-03T02:00:06.497Z,1.35
2023-01-03T02:06:13.522Z,1.80
2023-01-03T02:09:15.927Z,1.65
2023-01-03T02:13:00.025Z,1.15
2023-01-03T02:16:32.212Z,1.50
2023-01-03T02:20:08.580Z,4.47
2023-01-03T02:23:39.548Z,2.50
2023-01-03T02:27:09.990Z,3.75
2023-01-03T02:30:29.281Z,1.52
2023-01-03T02:33:53.697Z,2.20
2023-01-03T02:36:59.233Z,1.42
2023-01-03T02:40:22.912Z,3.03
2023-01-03T02:43:34.008Z,2.22
2023-01-03T02:46:44.602Z,1.58
2023-01-03T02:49:50.085Z,3.35
2023-01-03T02:52:54.166Z,1.30
2023-01-03T02:55:59.209Z,2.33
2023-01-03T02:59:07.109Z,2.70
2023-01-03T03:02:10.074Z,2.72
2023-01-03T03:05:15.884Z,2.47
2023-01-03T03:08:18.321Z,1.88
2023-01-03T03:11:39.275Z,1.45
2023-01-03T03:14:46.410Z,2.08
2023-01-03T03:17:48.777Z,3.20
2023-01-03T03:21:10.365Z,1.30
2023-01-03T03:24:38.841Z,2.20
2023-01-03T03:28:02.269Z,3.97
2023-01-03T03:31:08.173Z,2.65
2023-01-03T03:34:14.863Z,2.42
2023-01-03T03:37:19.182Z,2.63
2023-01-03T03:40:42.581Z,4.28
2023-01-03T03:44:10.343Z,3.05
2023-01-03T03:47:24.633Z,4.05
2023-01-03T03:51:01.167Z,5.28
2023-01-03T03:54:11.154Z,3.83
2023-01-03T03:57:18.638Z,5.38
2023-01-03T04:00:24.537Z,4.97
2023-01-03T04:03:27.560Z,7.20
2023-01-03T04:06:38.030Z,7.20
2023-01-03T04:09:40.570Z,5.15
2023-01-03T04:12:42.909Z,8.80
2023-01-03T04:15:45.237Z,8.73
2023-01-03T04:18:47.589Z,7.55
2023-01-03T04:21:49.997Z,9.30
2023-01-03T04:24:52.496Z,7.43
2023-01-03T04:27:55.014Z,6.30
2023-01-03T04:30:58.168Z,7.40
2023-01-03T04:34:00.537Z,9.93
2023-01-03T04:37:03.022Z,6.03
2023-01-03T04:40:05.800Z,10.48
2023-01-03T04:43:26.947Z,8.18
2023-01-03T04:46:37.480Z,11.02
2023-01-03T04:49:40.049Z,8.02
2023-01-03T04:52:42.403Z,8.75
2023-01-03T04:55:48.835Z,11.88
2023-01-03T04:58:51.227Z,8.48
2023-01-03T05:01:53.672Z,14.48
2023-01-03T05:04:56.065Z,9.05
2023-01-03T05:07:58.463Z,6.82
2023-01-03T05:11:00.722Z,11.18
2023-01-03T05:14:03.167Z,10.35
2023-01-03T05:17:05.592Z,6.65
2023-01-03T05:20:27.424Z,6.25
2023-01-03T05:23:48.566Z,9.15
2023-01-03T05:26:51.189Z,8.30
2023-01-03T05:29:54.177Z,8.02
2023-01-03T05:32:56.507Z,7.28
2023-01-03T05:35:58.833Z,7.07
2023-01-03T05:39:01.694Z,8.15
2023-01-03T05:42:04.490Z,5.38
2023-01-03T05:45:07.459Z,4.70
2023-01-03T05:48:10.493Z,6.03
2023-01-03T05:51:12.814Z,5.75
2023-01-03T05:54:16.342Z,7.15
2023-01-03T05:57:18.912Z,4.72
2023-01-03T06:00:21.452Z,4.38
2023-01-03T06:03:23.847Z,8.63
2023-01-03T06:06:26.420Z,5.15
2023-01-03T06:09:28.829Z,5.38
2023-01-03T06:12:31.141Z,4.78
2023-01-03T06:15:33.473Z,7.57
2023-01-03T06:18:36.761Z,5.75
2023-01-03T06:21:40.404Z,4.83
2023-01-03T06:24:42.729Z,5.00
2023-01-03T06:27:45.622Z,4.85
2023-01-03T06:30:47.998Z,7.68
2023-01-03T06:33:50.509Z,3.85
2023-01-03T06:36:52.755Z,6.15
2023-01-03T06:39:55.556Z,5.07
2023-01-03T06:42:58.174Z,5.15
2023-01-03T06:46:20.142Z,7.82
2023-01-03T06:49:41.008Z,8.25
2023-01-03T06:53:02.256Z,7.70
2023-01-03T06:56:05.369Z,7.28
2023-01-03T06:59:07.778Z,7.38
2023-01-03T07:02:10.368Z,9.32
2023-01-03T07:05:13.185Z,7.80
2023-01-03T07:08:15.611Z,8.23
2023-01-03T07:11:17.937Z,9.38
2023-01-03T07:14:20.427Z,6.45
2023-01-03T07:17:22.900Z,10.02
2023-01-03T07:20:25.235Z,8.13
2023-01-03T07:23:27.529Z,6.30
2023-01-03T07:26:31.366Z,5.57
2023-01-03T07:29:33.831Z,8.38
2023-01-03T07:32:36.150Z,9.45
2023-01-03T07:35:38.759Z,5.32
2023-01-03T07:38:43.000Z,6.15
2023-01-03T07:42:04.343Z,9.50
2023-01-03T07:45:07.480Z,5.65
2023-01-03T07:48:11.111Z,7.85
2023-01-03T07:51:15.028Z,5.15
2023-01-03T07:54:17.329Z,6.15
2023-01-03T07:57:19.750Z,4.40
2023-01-03T08:00:22.394Z,5.88
2023-01-03T08:03:24.852Z,4.25
2023-01-03T08:06:27.263Z,6.32
2023-01-03T08:09:48.189Z,3.33
2023-01-03T08:13:12.209Z,7.30
2023-01-03T08:16:16.343Z,5.22
2023-01-03T08:22:20.965Z,3.72
2023-01-03T08:25:23.305Z,6.38
2023-01-03T08:28:25.791Z,3.53
2023-01-03T08:31:29.454Z,4.25
2023-01-03T08:34:36.392Z,5.35
2023-01-03T08:37:38.877Z,5.10
2023-01-03T08:40:42.775Z,6.10
2023-01-03T08:43:45.834Z,6.90
2023-01-03T08:46:50.702Z,8.70
2023-01-03T08:49:53.112Z,7.50
2023-01-03T08:52:55.410Z,5.15
2023-01-03T08:55:57.820Z,3.95
2023-01-03T08:59:00.243Z,5.72
2023-01-03T09:02:03.288Z,4.80
2023-01-03T09:05:06.235Z,3.77
2023-01-03T09:08:08.723Z,5.65
2023-01-03T09:11:11.499Z,23.90
2023-01-03T09:14:13.993Z,6.35
2023-01-03T09:17:16.375Z,7.47
2023-01-03T09:20:19.089Z,4.80
2023-01-03T09:23:21.466Z,6.78
2023-01-03T09:26:23.853Z,5.97
2023-01-03T09:29:26.711Z,5.93
2023-01-03T09:32:29.062Z,5.43
2023-01-03T09:35:34.168Z,3.45
2023-01-03T09:38:36.918Z,4.97
2023-01-03T09:41:40.067Z,7.25
2023-01-03T09:44:42.644Z,3.35
2023-01-03T09:47:45.644Z,4.38
2023-01-03T09:51:17.148Z,4.03
2023-01-03T09:54:42.402Z,5.88
2023-01-03T09:58:03.652Z,5.60
2023-01-03T10:01:39.980Z,5.38
2023-01-03T10:04:51.330Z,1.95
2023-01-03T10:07:56.604Z,4.80
2023-01-03T10:11:26.176Z,4.32
2023-01-03T10:14:28.379Z,3.45
2023-01-03T10:17:51.638Z,6.78
2023-01-03T10:21:01.075Z,4.22
2023-01-03T10:24:17.921Z,3.03
2023-01-03T10:27:22.571Z,3.22
2023-01-03T10:30:58.357Z,6.22
2023-01-03T10:34:06.260Z,5.63
2023-01-03T10:37:18.024Z,6.45
2023-01-03T10:40:20.495Z,3.45
2023-01-03T10:43:29.542Z,6.50
2023-01-03T10:46:32.431Z,3.00
2023-01-03T10:49:35.042Z,5.50
2023-01-03T10:52:41.411Z,7.10
2023-01-03T10:55:50.623Z,6.38
2023-01-03T10:59:25.222Z,6.65
2023-01-03T11:02:27.713Z,7.00
2023-01-03T11:05:30.217Z,6.22
2023-01-03T11:08:58.512Z,6.25
2023-01-03T11:12:05.128Z,10.40
2023-01-03T11:15:26.330Z,13.82
2023-01-03T11:18:29.799Z,10.63
2023-01-03T11:22:05.609Z,9.20
2023-01-03T11:25:16.691Z,9.27
2023-01-03T11:28:54.244Z,7.03
2023-01-03T11:32:19.681Z,7.60
2023-01-03T11:35:50.019Z,5.95
2023-01-03T11:39:27.936Z,10.13
2023-01-03T11:42:41.963Z,7.40
2023-01-03T11:45:59.427Z,7.07
2023-01-03T11:49:28.094Z,7.43
2023-01-03T11:52:50.824Z,6.15
2023-01-03T11:56:19.309Z,9.15
2023-01-03T11:59:40.621Z,10.45
2023-01-03T12:02:59.214Z,8.52
2023-01-03T12:06:09.555Z,6.13
2023-01-03T12:09:33.764Z,7.97
2023-01-03T12:12:45.052Z,6.32
2023-01-03T12:15:51.330Z,11.68
2023-01-03T12:19:15.403Z,11.73
2023-01-03T12:22:45.360Z,10.15
2023-01-03T12:25:51.223Z,17.10
2023-01-03T12:28:58.814Z,12.60
2023-01-03T12:32:05.367Z,15.35
2023-01-03T12:35:25.011Z,16.02
2023-01-03T12:38:33.663Z,21.73
2023-01-03T12:42:22.752Z,12.00
2023-01-03T12:45:58.442Z,10.00
2023-01-03T12:49:17.990Z,8.60
2023-01-03T12:52:23.822Z,7.20
2023-01-03T12:56:07.141Z,8.02
2023-01-03T12:59:15.548Z,9.35
2023-01-03T13:02:36.271Z,8.27
2023-01-03T13:05:43.206Z,6.90
2023-01-03T13:08:50.430Z,5.50
2023-01-03T13:11:54.654Z,7.40
2023-01-03T13:18:24.070Z,12.10
2023-01-03T13:22:02.968Z,7.60
2023-01-03T13:25:34.194Z,6.35
2023-01-03T13:28:37.918Z,6.22
2023-01-03T13:31:41.312Z,10.20
2023-01-03T13:34:44.073Z,2.85
2023-01-03T13:37:48.618Z,7.20
2023-01-03T13:41:19.990Z,7.05
2023-01-03T13:44:23.539Z,7.45
2023-01-03T13:47:41.686Z,10.52
2023-01-03T13:51:03.411Z,7.93
2023-01-03T13:54:11.218Z,6.28
2023-01-03T13:57:37.873Z,7.57
2023-01-03T14:00:41.068Z,9.63
2023-01-03T14:04:14.734Z,8.98
2023-01-03T14:07:35.538Z,8.93
2023-01-03T14:10:59.787Z,13.35
2023-01-03T14:14:08.695Z,11.55
2023-01-03T14:17:22.042Z,10.52
2023-01-03T14:20:30.159Z,7.97
2023-01-03T14:23:59.151Z,7.43
2023-01-03T14:26:55.515Z,6.82
2023-01-03T14:29:57.871Z,8.23
2023-01-03T14:33:00.421Z,6.03
2023-01-03T14:36:14.399Z,5.28
2023-01-03T14:39:23.109Z,8.43
2023-01-03T14:42:26.098Z,7.00
2023-01-03T14:45:28.953Z,8.40
2023-01-03T14:48:31.412Z,9.68
2023-01-03T14:51:35.551Z,9.18
2023-01-03T14:57:40.604Z,8.85
2023-01-03T15:00:43.305Z,7.93
2023-01-03T15:03:47.695Z,13.63
2023-01-03T15:07:03.391Z,19.55
2023-01-03T15:10:11.673Z,25.85
2023-01-03T15:13:30.259Z,17.52
2023-01-03T15:16:36.438Z,16.60
2023-01-03T15:19:46.756Z,10.30
2023-01-03T15:22:50.379Z,14.88
2023-01-03T15:25:53.254Z,15.35
2023-01-03T15:29:15.419Z,13.82
2023-01-03T15:32:19.646Z,9.68
2023-01-03T15:35:35.754Z,7.32
2023-01-03T15:38:40.044Z,13.20
2023-01-03T15:42:34.569Z,11.77
2023-01-03T15:45:26.998Z,10.50
2023-01-03T15:48:29.907Z,12.93
2023-01-03T15:51:32.295Z,8.63
2023-01-03T15:54:34.869Z,8.32
2023-01-03T15:57:37.285Z,9.20
2023-01-03T16:00:39.748Z,12.48
2023-01-03T16:03:42.353Z,11.93
2023-01-03T16:06:44.691Z,9.52
2023-01-03T16:09:47.104Z,9.30
2023-01-03T16:12:49.382Z,11.45
2023-01-03T16:15:52.799Z,9.73
2023-01-03T16:18:57.022Z,8.57
2023-01-03T16:22:33.217Z,13.15
2023-01-03T16:25:25.715Z,8.23
2023-01-03T16:28:28.337Z,12.65
2023-01-03T16:31:32.727Z,11.35
2023-01-03T16:34:35.319Z,11.75
2023-01-03T16:37:37.656Z,11.63
2023-01-03T16:40:40.024Z,9.95
2023-01-03T16:43:42.414Z,9.38
2023-01-03T16:46:45.835Z,10.18
2023-01-03T16:49:52.255Z,10.10
2023-01-03T16:52:57.204Z,20.38
2023-01-03T16:55:59.612Z,18.10
2023-01-03T16:59:03.523Z,16.70
2023-01-03T17:02:07.177Z,12.50
2023-01-03T17:05:10.173Z,11.70
2023-01-03T17:08:17.307Z,16.42
2023-01-03T17:11:19.628Z,15.73
2023-01-03T17:14:22.845Z,11.88
2023-01-03T17:17:25.144Z,11.67
2023-01-03T17:20:27.545Z,13.55
2023-01-03T17:23:33.447Z,10.27
2023-01-03T17:26:36.598Z,11.77
2023-01-03T17:29:39.548Z,9.93
2023-01-03T17:32:42.181Z,9.88
2023-01-03T17:35:46.100Z,13.52
2023-01-03T17:38:48.515Z,14.18
2023-01-03T17:42:11.585Z,9.65
2023-01-03T17:45:32.956Z,15.43
2023-01-03T17:48:54.118Z,12.57
2023-01-03T17:52:06.379Z,12.40
2023-01-03T17:55:19.798Z,12.95
2023-01-03T17:58:38.315Z,11.37
2023-01-03T18:01:41.577Z,13.15
2023-01-03T18:05:14.132Z,9.75
2023-01-03T18:08:07.028Z,10.98
2023-01-03T18:11:15.421Z,11.93
2023-01-03T18:14:17.798Z,11.52
2023-01-03T18:17:31.498Z,9.75
2023-01-03T18:20:33.925Z,11.00
2023-01-03T18:23:38.325Z,12.48
2023-01-03T18:26:43.943Z,9.98
2023-01-03T18:29:46.250Z,9.50
2023-01-03T18:32:48.657Z,11.88
2023-01-03T18:35:52.669Z,13.75
2023-01-03T18:42:19.166Z,9.55
2023-01-03T18:45:21.559Z,15.25
2023-01-03T18:48:24.080Z,23.15
2023-01-03T18:51:29.369Z,13.95
2023-01-03T18:54:31.876Z,16.60
2023-01-03T18:57:34.385Z,12.55
2023-01-03T19:00:36.767Z,15.07
2023-01-03T19:03:40.198Z,24.48
2023-01-03T19:06:45.586Z,20.45
2023-01-03T19:09:47.989Z,17.20
2023-01-03T19:12:52.103Z,14.38
2023-01-03T19:18:57.567Z,11.35
2023-01-03T19:21:59.972Z,16.73
2023-01-03T19:25:06.113Z,18.05
2023-01-03T19:28:11.432Z,14.18
2023-01-03T19:31:13.757Z,15.77
2023-01-03T19:34:34.741Z,16.05
2023-01-03T19:37:37.200Z,11.65
2023-01-03T19:40:40.922Z,13.40
2023-01-03T19:43:43.363Z,9.63
2023-01-03T19:46:45.709Z,13.98
2023-01-03T19:49:48.548Z,12.27
2023-01-03T19:52:51.538Z,11.35
2023-01-03T19:55:53.966Z,8.73
2023-01-03T19:59:02.732Z,11.40
2023-01-03T20:02:34.852Z,14.77
2023-01-03T20:05:37.498Z,10.48
2023-01-03T20:08:39.917Z,14.07
2023-01-03T20:11:42.443Z,10.63
2023-01-03T20:14:50.706Z,13.60
2023-01-03T20:17:53.816Z,12.00
2023-01-03T20:20:58.412Z,13.32
2023-01-03T20:24:02.101Z,13.90
2023-01-03T20:27:04.552Z,8.10
2023-01-03T20:30:15.656Z,9.90
2023-01-03T20:33:18.008Z,11.05
2023-01-03T20:36:24.177Z,12.45
2023-01-03T20:39:33.087Z,15.73
2023-01-03T20:42:35.421Z,14.40
2023-01-03T20:45:38.280Z,16.20
2023-01-03T20:48:40.751Z,9.70
2023-01-03T20:51:43.162Z,10.63
2023-01-03T20:54:45.502Z,14.63
2023-01-03T20:57:48.483Z,12.73
2023-01-03T21:00:51.023Z,10.85
2023-01-03T21:03:53.492Z,10.73
2023-01-03T21:06:55.827Z,11.50
2023-01-03T21:09:58.154Z,8.95
2023-01-03T21:13:00.766Z,13.63
2023-01-03T21:16:03.123Z,11.95
2023-01-03T21:19:22.289Z,12.80
2023-01-03T21:22:24.604Z,13.50
2023-01-03T21:25:35.194Z,15.70
2023-01-03T21:28:37.590Z,12.63
2023-01-03T21:31:42.429Z,13.93
2023-01-03T21:34:44.953Z,18.15
2023-01-03T21:37:47.888Z,13.35
2023-01-03T21:40:50.411Z,11.18
2023-01-03T21:44:03.492Z,16.05
2023-01-03T21:47:05.952Z,11.30
2023-01-03T21:50:09.168Z,15.10
2023-01-03T21:53:18.696Z,11.88
2023-01-03T21:56:22.992Z,16.10
2023-01-03T21:59:25.382Z,14.50
2023-01-03T22:02:46.813Z,15.77
2023-01-03T22:05:49.272Z,13.18
2023-01-03T22:08:51.842Z,15.45
2023-01-03T22:11:54.272Z,20.95
2023-01-03T22:14:56.586Z,46.25
2023-01-03T22:17:58.913Z,27.85
2023-01-03T22:21:09.626Z,23.10
2023-01-03T22:24:12.011Z,20.08
2023-01-03T22:27:14.332Z,14.68
2023-01-03T22:30:19.139Z,14.60
2023-01-03T22:33:21.471Z,16.35
2023-01-03T22:36:23.837Z,14.85
2023-01-03T22:39:26.176Z,15.27
2023-01-03T22:42:28.604Z,14.18
2023-01-03T22:45:30.888Z,13.25
2023-01-03T22:48:33.378Z,14.18
2023-01-03T22:51:35.747Z,17.48
2023-01-03T22:54:39.259Z,27.25
2023-01-03T22:57:41.572Z,22.85
2023-01-03T23:00:46.219Z,18.80
2023-01-03T23:03:48.879Z,13.50
2023-01-03T23:06:51.190Z,17.05
2023-01-03T23:09:53.653Z,16.50
2023-01-03T23:12:59.019Z,15.68
2023-01-03T23:16:02.441Z,13.30
2023-01-03T23:19:07.654Z,16.40
2023-01-03T23:22:09.969Z,15.38
2023-01-03T23:25:12.237Z,21.13
2023-01-03T23:28:14.498Z,19.23
2023-01-03T23:31:16.878Z,15.93
2023-01-03T23:34:19.307Z,17.05
2023-01-03T23:37:21.600Z,20.85
2023-01-03T23:40:24.030Z,15.43
2023-01-03T23:43:26.395Z,20.20
2023-01-03T23:46:28.904Z,15.15
2023-01-03T23:49:31.420Z,16.73
2023-01-03T23:52:34.390Z,15.70
2023-01-03T23:55:36.859Z,20.20
2023-01-03T23:58:39.241Z,17.30
